sensor_id;sensor_type;location;lat;lon;timestamp;P1;durP1;ratioP1;P2;durP2;ratioP2
43216;SDS011;60511;42.686;23.300;2022-12-18T00:01:56;4.75;;;4.35;;
43216;SDS011;60511;42.686;23.300;2022-12-18T00:03:59;4.32;;;3.92;;
43216;SDS011;60511;42.686;23.300;2022-12-18T00:06:01;4.95;;;4.53;;
43216;SDS011;60511;42.686;23.300;2022-12-18T00:08:02;4.53;;;4.13;;
43216;SDS011;60511;42.686;23.300;2022-12-18T00:10:02;4.18;;;3.88;;
43216;SDS011;60511;42.686;23.300;2022-12-18T00:12:03;4.35;;;3.95;;
43216;SDS011;60511;42.686;23.300;2022-12-18T00:14:04;3.97;;;3.67;;
43216;SDS011;60511;42.686;23.300;2022-12-18T00:16:06;4.50;;;4.10;;
43216;SDS011;60511;42.686;23.300;2022-12-18T00:18:11;4.38;;;3.97;;
43216;SDS011;60511;42.686;23.300;2022-12-18T00:20:11;4.22;;;3.83;;
43216;SDS011;60511;42.686;23.300;2022-12-18T00:22:12;4.25;;;3.85;;
43216;SDS011;60511;42.686;23.300;2022-12-18T00:24:12;4.72;;;4.20;;
43216;SDS011;60511;42.686;23.300;2022-12-18T00:26:17;4.00;;;3.70;;
43216;SDS011;60511;42.686;23.300;2022-12-18T00:28:19;4.57;;;4.18;;
43216;SDS011;60511;42.686;23.300;2022-12-18T00:30:20;4.45;;;4.05;;
43216;SDS011;60511;42.686;23.300;2022-12-18T00:32:20;4.50;;;4.10;;
43216;SDS011;60511;42.686;23.300;2022-12-18T00:34:21;4.32;;;3.90;;
43216;SDS011;60511;42.686;23.300;2022-12-18T00:36:22;3.92;;;3.63;;
43216;SDS011;60511;42.686;23.300;2022-12-18T00:38:25;4.05;;;3.65;;
43216;SDS011;60511;42.686;23.300;2022-12-18T00:40:25;3.92;;;3.63;;
43216;SDS011;60511;42.686;23.300;2022-12-18T00:42:26;4.53;;;4.13;;
43216;SDS011;60511;42.686;23.300;2022-12-18T00:44:44;4.45;;;4.05;;
43216;SDS011;60511;42.686;23.300;2022-12-18T00:46:45;4.03;;;3.63;;
43216;SDS011;60511;42.686;23.300;2022-12-18T00:48:46;4.00;;;3.60;;
43216;SDS011;60511;42.686;23.300;2022-12-18T00:50:47;4.15;;;3.72;;
43216;SDS011;60511;42.686;23.300;2022-12-18T00:52:48;3.90;;;3.60;;
43216;SDS011;60511;42.686;23.300;2022-12-18T00:54:49;3.97;;;3.65;;
43216;SDS011;60511;42.686;23.300;2022-12-18T00:56:49;3.97;;;3.60;;
43216;SDS011;60511;42.686;23.300;2022-12-18T00:58:49;4.78;;;4.28;;
43216;SDS011;60511;42.686;23.300;2022-12-18T01:00:50;4.28;;;3.97;;
43216;SDS011;60511;42.686;23.300;2022-12-18T01:02:50;4.50;;;4.10;;
43216;SDS011;60511;42.686;23.300;2022-12-18T01:04:51;4.60;;;4.20;;
43216;SDS011;60511;42.686;23.300;2022-12-18T01:06:51;4.07;;;3.70;;
43216;SDS011;60511;42.686;23.300;2022-12-18T01:08:51;3.58;;;3.28;;
43216;SDS011;60511;42.686;23.300;2022-12-18T01:10:52;3.80;;;3.50;;
43216;SDS011;60511;42.686;23.300;2022-12-18T01:12:52;4.03;;;3.72;;
43216;SDS011;60511;42.686;23.300;2022-12-18T01:14:52;4.10;;;3.80;;
43216;SDS011;60511;42.686;23.300;2022-12-18T01:16:53;4.13;;;3.72;;
43216;SDS011;60511;42.686;23.300;2022-12-18T01:18:54;4.53;;;4.10;;
43216;SDS011;60511;42.686;23.300;2022-12-18T01:20:54;4.00;;;3.60;;
43216;SDS011;60511;42.686;23.300;2022-12-18T01:22:55;3.72;;;3.42;;
43216;SDS011;60511;42.686;23.300;2022-12-18T01:24:55;3.78;;;3.47;;
43216;SDS011;60511;42.686;23.300;2022-12-18T01:26:55;3.78;;;3.47;;
43216;SDS011;60511;42.686;23.300;2022-12-18T01:28:57;3.75;;;3.45;;
43216;SDS011;60511;42.686;23.300;2022-12-18T01:30:57;3.65;;;3.35;;
43216;SDS011;60511;42.686;23.300;2022-12-18T01:33:08;3.90;;;3.55;;
43216;SDS011;60511;42.686;23.300;2022-12-18T01:35:08;3.88;;;3.53;;
43216;SDS011;60511;42.686;23.300;2022-12-18T01:37:09;3.67;;;3.38;;
43216;SDS011;60511;42.686;23.300;2022-12-18T01:39:11;4.65;;;4.25;;
43216;SDS011;60511;42.686;23.300;2022-12-18T01:41:14;4.03;;;3.72;;
43216;SDS011;60511;42.686;23.300;2022-12-18T01:43:15;3.65;;;3.35;;
43216;SDS011;60511;42.686;23.300;2022-12-18T01:49:30;3.47;;;3.17;;
43216;SDS011;60511;42.686;23.300;2022-12-18T01:51:30;3.85;;;3.47;;
43216;SDS011;60511;42.686;23.300;2022-12-18T01:53:31;3.70;;;3.40;;
43216;SDS011;60511;42.686;23.300;2022-12-18T01:55:33;3.63;;;3.33;;
43216;SDS011;60511;42.686;23.300;2022-12-18T01:57:38;4.28;;;3.88;;
43216;SDS011;60511;42.686;23.300;2022-12-18T01:59:39;3.70;;;3.40;;
43216;SDS011;60511;42.686;23.300;2022-12-18T02:01:42;4.20;;;3.80;;
43216;SDS011;60511;42.686;23.300;2022-12-18T02:03:43;3.78;;;3.33;;
43216;SDS011;60511;42.686;23.300;2022-12-18T02:08:07;3.50;;;3.20;;
43216;SDS011;60511;42.686;23.300;2022-12-18T02:10:15;3.65;;;3.35;;
43216;SDS011;60511;42.686;23.300;2022-12-18T02:13:02;3.22;;;2.95;;
43216;SDS011;60511;42.686;23.300;2022-12-18T02:15:26;3.47;;;3.17;;
43216;SDS011;60511;42.686;23.300;2022-12-18T02:17:57;3.85;;;3.45;;
43216;SDS011;60511;42.686;23.300;2022-12-18T02:27:22;3.80;;;3.40;;
43216;SDS011;60511;42.686;23.300;2022-12-18T02:29:24;3.30;;;3.03;;
43216;SDS011;60511;42.686;23.300;2022-12-18T02:31:30;4.00;;;3.60;;
43216;SDS011;60511;42.686;23.300;2022-12-18T02:33:36;3.65;;;3.35;;
43216;SDS011;60511;42.686;23.300;2022-12-18T02:35:39;3.50;;;3.20;;
43216;SDS011;60511;42.686;23.300;2022-12-18T02:37:42;3.63;;;3.27;;
43216;SDS011;60511;42.686;23.300;2022-12-18T02:39:47;3.28;;;2.97;;
43216;SDS011;60511;42.686;23.300;2022-12-18T02:41:49;3.38;;;3.08;;
43216;SDS011;60511;42.686;23.300;2022-12-18T02:43:55;3.70;;;3.40;;
43216;SDS011;60511;42.686;23.300;2022-12-18T02:45:58;3.15;;;2.85;;
43216;SDS011;60511;42.686;23.300;2022-12-18T02:48:00;3.43;;;3.13;;
43216;SDS011;60511;42.686;23.300;2022-12-18T02:54:30;3.42;;;3.13;;
43216;SDS011;60511;42.686;23.300;2022-12-18T02:56:53;3.90;;;3.53;;
43216;SDS011;60511;42.686;23.300;2022-12-18T02:58:58;3.75;;;3.35;;
43216;SDS011;60511;42.686;23.300;2022-12-18T03:05:17;3.60;;;3.30;;
43216;SDS011;60511;42.686;23.300;2022-12-18T03:07:25;3.63;;;3.33;;
43216;SDS011;60511;42.686;23.300;2022-12-18T03:09:35;3.30;;;3.00;;
43216;SDS011;60511;42.686;23.300;2022-12-18T03:11:39;3.17;;;2.92;;
43216;SDS011;60511;42.686;23.300;2022-12-18T03:14:01;3.47;;;3.17;;
43216;SDS011;60511;42.686;23.300;2022-12-18T03:16:05;3.47;;;3.17;;
43216;SDS011;60511;42.686;23.300;2022-12-18T03:18:10;3.13;;;2.92;;
43216;SDS011;60511;42.686;23.300;2022-12-18T03:20:18;3.85;;;3.45;;
43216;SDS011;60511;42.686;23.300;2022-12-18T03:22:22;3.67;;;3.38;;
43216;SDS011;60511;42.686;23.300;2022-12-18T03:24:25;3.70;;;3.40;;
43216;SDS011;60511;42.686;23.300;2022-12-18T03:26:28;3.40;;;3.10;;
43216;SDS011;60511;42.686;23.300;2022-12-18T03:28:29;4.13;;;3.70;;
43216;SDS011;60511;42.686;23.300;2022-12-18T03:30:32;3.67;;;3.38;;
43216;SDS011;60511;42.686;23.300;2022-12-18T03:32:39;3.28;;;2.97;;
43216;SDS011;60511;42.686;23.300;2022-12-18T03:34:44;3.55;;;3.25;;
43216;SDS011;60511;42.686;23.300;2022-12-18T03:36:48;3.42;;;3.13;;
43216;SDS011;60511;42.686;23.300;2022-12-18T03:38:49;3.92;;;3.63;;
43216;SDS011;60511;42.686;23.300;2022-12-18T03:41:07;3.60;;;3.30;;
43216;SDS011;60511;42.686;23.300;2022-12-18T03:45:37;3.37;;;2.90;;
43216;SDS011;60511;42.686;23.300;2022-12-18T03:47:50;3.35;;;3.15;;
43216;SDS011;60511;42.686;23.300;2022-12-18T03:50:11;3.22;;;2.95;;
43216;SDS011;60511;42.686;23.300;2022-12-18T03:52:33;3.05;;;2.85;;
43216;SDS011;60511;42.686;23.300;2022-12-18T03:54:38;3.38;;;3.08;;
43216;SDS011;60511;42.686;23.300;2022-12-18T03:56:42;3.20;;;2.90;;
43216;SDS011;60511;42.686;23.300;2022-12-18T03:58:46;3.38;;;3.08;;
43216;SDS011;60511;42.686;23.300;2022-12-18T04:00:49;3.58;;;3.28;;
43216;SDS011;60511;42.686;23.300;2022-12-18T04:02:54;3.10;;;2.80;;
43216;SDS011;60511;42.686;23.300;2022-12-18T04:04:58;3.50;;;3.20;;
43216;SDS011;60511;42.686;23.300;2022-12-18T04:07:02;4.15;;;3.75;;
43216;SDS011;60511;42.686;23.300;2022-12-18T04:09:04;3.35;;;2.97;;
43216;SDS011;60511;42.686;23.300;2022-12-18T04:11:05;3.13;;;2.92;;
43216;SDS011;60511;42.686;23.300;2022-12-18T04:13:05;3.90;;;3.60;;
43216;SDS011;60511;42.686;23.300;2022-12-18T04:15:06;3.22;;;2.92;;
43216;SDS011;60511;42.686;23.300;2022-12-18T04:17:07;3.85;;;3.55;;
43216;SDS011;60511;42.686;23.300;2022-12-18T04:19:08;4.15;;;3.85;;
43216;SDS011;60511;42.686;23.300;2022-12-18T04:21:09;3.33;;;3.13;;
43216;SDS011;60511;42.686;23.300;2022-12-18T04:23:10;4.43;;;4.00;;
43216;SDS011;60511;42.686;23.300;2022-12-18T04:25:10;3.33;;;3.03;;
43216;SDS011;60511;42.686;23.300;2022-12-18T04:27:12;3.40;;;3.10;;
43216;SDS011;60511;42.686;23.300;2022-12-18T04:29:12;3.42;;;3.13;;
43216;SDS011;60511;42.686;23.300;2022-12-18T04:31:13;3.63;;;3.33;;
43216;SDS011;60511;42.686;23.300;2022-12-18T04:33:13;3.38;;;3.08;;
43216;SDS011;60511;42.686;23.300;2022-12-18T04:35:14;2.92;;;2.67;;
43216;SDS011;60511;42.686;23.300;2022-12-18T04:37:14;3.45;;;3.15;;
43216;SDS011;60511;42.686;23.300;2022-12-18T04:39:15;3.80;;;3.50;;
43216;SDS011;60511;42.686;23.300;2022-12-18T04:41:15;3.38;;;3.08;;
43216;SDS011;60511;42.686;23.300;2022-12-18T04:43:15;3.50;;;3.20;;
43216;SDS011;60511;42.686;23.300;2022-12-18T04:45:16;3.70;;;3.40;;
43216;SDS011;60511;42.686;23.300;2022-12-18T04:47:16;3.55;;;3.25;;
43216;SDS011;60511;42.686;23.300;2022-12-18T04:49:17;4.07;;;3.67;;
43216;SDS011;60511;42.686;23.300;2022-12-18T04:51:17;3.70;;;3.40;;
43216;SDS011;60511;42.686;23.300;2022-12-18T04:53:17;3.67;;;3.38;;
43216;SDS011;60511;42.686;23.300;2022-12-18T04:55:18;4.07;;;3.70;;
43216;SDS011;60511;42.686;23.300;2022-12-18T04:57:18;3.75;;;3.30;;
43216;SDS011;60511;42.686;23.300;2022-12-18T04:59:19;3.58;;;3.28;;
43216;SDS011;60511;42.686;23.300;2022-12-18T05:01:19;3.75;;;3.45;;
43216;SDS011;60511;42.686;23.300;2022-12-18T05:03:20;3.63;;;3.33;;
43216;SDS011;60511;42.686;23.300;2022-12-18T05:05:20;3.80;;;3.50;;
43216;SDS011;60511;42.686;23.300;2022-12-18T05:07:20;3.63;;;3.33;;
43216;SDS011;60511;42.686;23.300;2022-12-18T05:09:21;3.67;;;3.38;;
43216;SDS011;60511;42.686;23.300;2022-12-18T05:11:21;4.20;;;3.70;;
43216;SDS011;60511;42.686;23.300;2022-12-18T05:13:22;3.90;;;3.60;;
43216;SDS011;60511;42.686;23.300;2022-12-18T05:15:22;4.63;;;4.22;;
43216;SDS011;60511;42.686;23.300;2022-12-18T05:17:22;3.75;;;3.45;;
43216;SDS011;60511;42.686;23.300;2022-12-18T05:19:23;3.88;;;3.47;;
43216;SDS011;60511;42.686;23.300;2022-12-18T05:21:23;3.65;;;3.35;;
43216;SDS011;60511;42.686;23.300;2022-12-18T05:23:24;4.50;;;4.10;;
43216;SDS011;60511;42.686;23.300;2022-12-18T05:25:25;3.83;;;3.22;;
43216;SDS011;60511;42.686;23.300;2022-12-18T05:27:25;3.65;;;3.35;;
43216;SDS011;60511;42.686;23.300;2022-12-18T05:29:26;3.72;;;3.42;;
43216;SDS011;60511;42.686;23.300;2022-12-18T05:31:26;4.18;;;3.78;;
43216;SDS011;60511;42.686;23.300;2022-12-18T05:33:28;4.25;;;3.85;;
43216;SDS011;60511;42.686;23.300;2022-12-18T05:35:31;4.05;;;3.65;;
43216;SDS011;60511;42.686;23.300;2022-12-18T05:37:31;3.97;;;3.67;;
43216;SDS011;60511;42.686;23.300;2022-12-18T05:39:32;4.13;;;3.72;;
43216;SDS011;60511;42.686;23.300;2022-12-18T05:41:32;3.78;;;3.47;;
43216;SDS011;60511;42.686;23.300;2022-12-18T05:43:34;3.95;;;3.65;;
43216;SDS011;60511;42.686;23.300;2022-12-18T05:45:37;4.40;;;4.00;;
43216;SDS011;60511;42.686;23.300;2022-12-18T05:47:38;4.47;;;4.07;;
43216;SDS011;60511;42.686;23.300;2022-12-18T05:49:38;4.47;;;4.07;;
43216;SDS011;60511;42.686;23.300;2022-12-18T05:51:39;4.53;;;4.13;;
43216;SDS011;60511;42.686;23.300;2022-12-18T05:53:39;4.35;;;3.95;;
43216;SDS011;60511;42.686;23.300;2022-12-18T05:55:40;4.65;;;4.25;;
43216;SDS011;60511;42.686;23.300;2022-12-18T05:57:41;4.35;;;3.92;;
43216;SDS011;60511;42.686;23.300;2022-12-18T05:59:42;4.35;;;4.03;;
43216;SDS011;60511;42.686;23.300;2022-12-18T06:01:42;4.18;;;3.78;;
43216;SDS011;60511;42.686;23.300;2022-12-18T06:03:43;4.53;;;4.00;;
43216;SDS011;60511;42.686;23.300;2022-12-18T06:05:44;4.50;;;4.10;;
43216;SDS011;60511;42.686;23.300;2022-12-18T06:07:45;5.53;;;5.03;;
43216;SDS011;60511;42.686;23.300;2022-12-18T06:09:45;4.68;;;4.28;;
43216;SDS011;60511;42.686;23.300;2022-12-18T06:11:46;4.35;;;3.95;;
43216;SDS011;60511;42.686;23.300;2022-12-18T06:13:46;4.65;;;4.25;;
43216;SDS011;60511;42.686;23.300;2022-12-18T06:15:50;5.03;;;4.55;;
43216;SDS011;60511;42.686;23.300;2022-12-18T06:17:50;4.60;;;4.20;;
43216;SDS011;60511;42.686;23.300;2022-12-18T06:19:50;3.92;;;3.63;;
43216;SDS011;60511;42.686;23.300;2022-12-18T06:21:51;4.57;;;4.18;;
43216;SDS011;60511;42.686;23.300;2022-12-18T06:23:51;5.00;;;4.53;;
43216;SDS011;60511;42.686;23.300;2022-12-18T06:25:52;4.43;;;4.03;;
43216;SDS011;60511;42.686;23.300;2022-12-18T06:27:52;5.15;;;4.68;;
43216;SDS011;60511;42.686;23.300;2022-12-18T06:29:53;4.85;;;4.35;;
43216;SDS011;60511;42.686;23.300;2022-12-18T06:31:53;4.70;;;4.30;;
43216;SDS011;60511;42.686;23.300;2022-12-18T06:33:53;4.68;;;4.22;;
43216;SDS011;60511;42.686;23.300;2022-12-18T06:35:54;4.78;;;4.30;;
43216;SDS011;60511;42.686;23.300;2022-12-18T06:38:00;4.63;;;4.22;;
43216;SDS011;60511;42.686;23.300;2022-12-18T06:40:01;4.35;;;3.95;;
43216;SDS011;60511;42.686;23.300;2022-12-18T06:42:02;4.95;;;4.55;;
43216;SDS011;60511;42.686;23.300;2022-12-18T06:44:03;4.88;;;4.47;;
43216;SDS011;60511;42.686;23.300;2022-12-18T06:46:04;5.10;;;4.70;;
43216;SDS011;60511;42.686;23.300;2022-12-18T06:48:05;5.13;;;4.63;;
43216;SDS011;60511;42.686;23.300;2022-12-18T06:50:06;4.97;;;4.55;;
43216;SDS011;60511;42.686;23.300;2022-12-18T06:52:06;5.57;;;5.05;;
43216;SDS011;60511;42.686;23.300;2022-12-18T06:54:07;4.53;;;4.05;;
43216;SDS011;60511;42.686;23.300;2022-12-18T06:56:08;5.65;;;5.15;;
43216;SDS011;60511;42.686;23.300;2022-12-18T06:58:08;5.20;;;4.70;;
43216;SDS011;60511;42.686;23.300;2022-12-18T07:00:09;4.38;;;4.05;;
43216;SDS011;60511;42.686;23.300;2022-12-18T07:02:12;4.72;;;4.32;;
43216;SDS011;60511;42.686;23.300;2022-12-18T07:04:13;5.30;;;4.80;;
43216;SDS011;60511;42.686;23.300;2022-12-18T07:06:14;5.50;;;5.00;;
43216;SDS011;60511;42.686;23.300;2022-12-18T07:08:17;4.93;;;4.47;;
43216;SDS011;60511;42.686;23.300;2022-12-18T07:10:18;5.18;;;4.75;;
43216;SDS011;60511;42.686;23.300;2022-12-18T07:12:18;5.45;;;4.95;;
43216;SDS011;60511;42.686;23.300;2022-12-18T07:14:19;5.97;;;5.43;;
43216;SDS011;60511;42.686;23.300;2022-12-18T07:16:20;5.18;;;4.70;;
43216;SDS011;60511;42.686;23.300;2022-12-18T07:18:21;5.25;;;4.80;;
43216;SDS011;60511;42.686;23.300;2022-12-18T07:20:21;5.45;;;4.95;;
43216;SDS011;60511;42.686;23.300;2022-12-18T07:22:21;5.28;;;4.80;;
43216;SDS011;60511;42.686;23.300;2022-12-18T07:24:22;4.93;;;4.45;;
43216;SDS011;60511;42.686;23.300;2022-12-18T07:26:22;5.60;;;5.10;;
43216;SDS011;60511;42.686;23.300;2022-12-18T07:28:23;6.07;;;5.47;;
43216;SDS011;60511;42.686;23.300;2022-12-18T07:30:23;5.28;;;4.78;;
43216;SDS011;60511;42.686;23.300;2022-12-18T07:32:24;5.50;;;5.00;;
43216;SDS011;60511;42.686;23.300;2022-12-18T07:34:24;5.90;;;5.40;;
43216;SDS011;60511;42.686;23.300;2022-12-18T07:36:24;5.05;;;4.65;;
43216;SDS011;60511;42.686;23.300;2022-12-18T07:38:25;5.57;;;5.07;;
43216;SDS011;60511;42.686;23.300;2022-12-18T07:40:26;6.40;;;5.80;;
43216;SDS011;60511;42.686;23.300;2022-12-18T07:42:26;5.93;;;5.43;;
43216;SDS011;60511;42.686;23.300;2022-12-18T07:44:32;5.55;;;5.07;;
43216;SDS011;60511;42.686;23.300;2022-12-18T07:46:33;5.72;;;5.22;;
43216;SDS011;60511;42.686;23.300;2022-12-18T07:48:33;6.28;;;5.78;;
43216;SDS011;60511;42.686;23.300;2022-12-18T07:50:34;5.60;;;5.10;;
43216;SDS011;60511;42.686;23.300;2022-12-18T07:52:34;5.63;;;5.20;;
43216;SDS011;60511;42.686;23.300;2022-12-18T07:54:35;5.63;;;5.13;;
43216;SDS011;60511;42.686;23.300;2022-12-18T07:56:35;6.70;;;6.05;;
43216;SDS011;60511;42.686;23.300;2022-12-18T07:58:36;6.15;;;5.63;;
43216;SDS011;60511;42.686;23.300;2022-12-18T08:00:37;6.55;;;5.95;;
43216;SDS011;60511;42.686;23.300;2022-12-18T08:02:38;6.50;;;5.75;;
43216;SDS011;60511;42.686;23.300;2022-12-18T08:04:38;5.93;;;5.43;;
43216;SDS011;60511;42.686;23.300;2022-12-18T08:06:38;5.80;;;5.30;;
43216;SDS011;60511;42.686;23.300;2022-12-18T08:08:39;5.32;;;4.82;;
43216;SDS011;60511;42.686;23.300;2022-12-18T08:10:41;6.35;;;5.75;;
43216;SDS011;60511;42.686;23.300;2022-12-18T08:12:41;6.45;;;5.85;;
43216;SDS011;60511;42.686;23.300;2022-12-18T08:14:42;6.00;;;5.50;;
43216;SDS011;60511;42.686;23.300;2022-12-18T08:16:42;6.55;;;5.95;;
43216;SDS011;60511;42.686;23.300;2022-12-18T08:18:42;6.55;;;6.05;;
43216;SDS011;60511;42.686;23.300;2022-12-18T08:20:43;6.22;;;5.72;;
43216;SDS011;60511;42.686;23.300;2022-12-18T08:22:43;6.28;;;5.68;;
43216;SDS011;60511;42.686;23.300;2022-12-18T08:24:44;6.32;;;5.72;;
43216;SDS011;60511;42.686;23.300;2022-12-18T08:26:45;7.18;;;6.47;;
43216;SDS011;60511;42.686;23.300;2022-12-18T08:28:45;6.50;;;5.90;;
43216;SDS011;60511;42.686;23.300;2022-12-18T08:30:45;6.57;;;5.82;;
43216;SDS011;60511;42.686;23.300;2022-12-18T08:32:46;6.82;;;6.15;;
43216;SDS011;60511;42.686;23.300;2022-12-18T08:34:46;6.43;;;5.80;;
43216;SDS011;60511;42.686;23.300;2022-12-18T08:36:46;7.20;;;6.50;;
43216;SDS011;60511;42.686;23.300;2022-12-18T08:38:47;7.03;;;6.43;;
43216;SDS011;60511;42.686;23.300;2022-12-18T08:40:47;5.95;;;5.45;;
43216;SDS011;60511;42.686;23.300;2022-12-18T08:42:48;6.32;;;5.78;;
43216;SDS011;60511;42.686;23.300;2022-12-18T08:45:07;6.95;;;6.30;;
43216;SDS011;60511;42.686;23.300;2022-12-18T08:47:08;7.22;;;6.53;;
43216;SDS011;60511;42.686;23.300;2022-12-18T08:49:08;7.00;;;6.30;;
43216;SDS011;60511;42.686;23.300;2022-12-18T08:51:09;7.03;;;6.43;;
43216;SDS011;60511;42.686;23.300;2022-12-18T08:53:10;7.13;;;6.43;;
43216;SDS011;60511;42.686;23.300;2022-12-18T08:55:10;6.95;;;6.35;;
43216;SDS011;60511;42.686;23.300;2022-12-18T08:57:11;7.05;;;6.35;;
43216;SDS011;60511;42.686;23.300;2022-12-18T08:59:11;6.65;;;6.05;;
43216;SDS011;60511;42.686;23.300;2022-12-18T09:01:12;7.80;;;7.10;;
43216;SDS011;60511;42.686;23.300;2022-12-18T09:03:14;6.50;;;6.00;;
43216;SDS011;60511;42.686;23.300;2022-12-18T09:05:15;7.03;;;6.43;;
43216;SDS011;60511;42.686;23.300;2022-12-18T09:07:15;6.45;;;5.95;;
43216;SDS011;60511;42.686;23.300;2022-12-18T09:09:16;6.93;;;6.32;;
43216;SDS011;60511;42.686;23.300;2022-12-18T09:11:20;6.80;;;6.22;;
43216;SDS011;60511;42.686;23.300;2022-12-18T09:13:23;6.72;;;6.13;;
43216;SDS011;60511;42.686;23.300;2022-12-18T09:15:24;7.38;;;6.68;;
43216;SDS011;60511;42.686;23.300;2022-12-18T09:17:24;6.85;;;6.25;;
43216;SDS011;60511;42.686;23.300;2022-12-18T09:19:24;7.22;;;6.53;;
43216;SDS011;60511;42.686;23.300;2022-12-18T09:21:26;7.05;;;6.35;;
43216;SDS011;60511;42.686;23.300;2022-12-18T09:23:27;7.43;;;6.60;;
43216;SDS011;60511;42.686;23.300;2022-12-18T09:25:31;8.15;;;7.35;;
43216;SDS011;60511;42.686;23.300;2022-12-18T09:27:33;8.07;;;7.28;;
43216;SDS011;60511;42.686;23.300;2022-12-18T09:29:34;7.30;;;6.50;;
43216;SDS011;60511;42.686;23.300;2022-12-18T09:31:34;7.38;;;6.63;;
43216;SDS011;60511;42.686;23.300;2022-12-18T09:33:36;7.20;;;6.50;;
43216;SDS011;60511;42.686;23.300;2022-12-18T09:35:40;7.65;;;6.95;;
43216;SDS011;60511;42.686;23.300;2022-12-18T09:37:41;7.40;;;6.70;;
43216;SDS011;60511;42.686;23.300;2022-12-18T09:39:42;7.95;;;7.15;;
43216;SDS011;60511;42.686;23.300;2022-12-18T09:41:46;7.43;;;6.72;;
43216;SDS011;60511;42.686;23.300;2022-12-18T09:43:50;8.23;;;7.40;;
43216;SDS011;60511;42.686;23.300;2022-12-18T09:45:55;7.57;;;6.88;;
43216;SDS011;60511;42.686;23.300;2022-12-18T09:48:00;7.38;;;6.68;;
43216;SDS011;60511;42.686;23.300;2022-12-18T09:50:01;7.60;;;6.90;;
43216;SDS011;60511;42.686;23.300;2022-12-18T09:52:09;7.18;;;6.47;;
43216;SDS011;60511;42.686;23.300;2022-12-18T09:54:26;7.97;;;7.28;;
43216;SDS011;60511;42.686;23.300;2022-12-18T09:56:40;7.50;;;6.80;;
43216;SDS011;60511;42.686;23.300;2022-12-18T09:59:02;7.50;;;6.80;;
43216;SDS011;60511;42.686;23.300;2022-12-18T10:01:09;7.60;;;6.90;;
43216;SDS011;60511;42.686;23.300;2022-12-18T10:03:12;7.25;;;6.55;;
43216;SDS011;60511;42.686;23.300;2022-12-18T10:05:16;7.95;;;7.03;;
43216;SDS011;60511;42.686;23.300;2022-12-18T10:07:27;7.80;;;7.10;;
43216;SDS011;60511;42.686;23.300;2022-12-18T10:09:53;8.30;;;7.43;;
43216;SDS011;60511;42.686;23.300;2022-12-18T10:19:21;8.10;;;7.30;;
43216;SDS011;60511;42.686;23.300;2022-12-18T10:26:04;8.13;;;7.07;;
43216;SDS011;60511;42.686;23.300;2022-12-18T10:28:13;7.70;;;7.00;;
43216;SDS011;60511;42.686;23.300;2022-12-18T10:30:17;7.57;;;6.88;;
43216;SDS011;60511;42.686;23.300;2022-12-18T10:32:25;7.88;;;7.10;;
43216;SDS011;60511;42.686;23.300;2022-12-18T10:34:30;8.00;;;7.20;;
43216;SDS011;60511;42.686;23.300;2022-12-18T10:36:31;8.32;;;7.53;;
43216;SDS011;60511;42.686;23.300;2022-12-18T10:38:31;8.05;;;7.25;;
43216;SDS011;60511;42.686;23.300;2022-12-18T10:40:32;8.10;;;7.25;;
43216;SDS011;60511;42.686;23.300;2022-12-18T10:42:47;8.02;;;7.32;;
43216;SDS011;60511;42.686;23.300;2022-12-18T10:45:18;7.50;;;6.80;;
43216;SDS011;60511;42.686;23.300;2022-12-18T10:47:18;8.32;;;7.35;;
43216;SDS011;60511;42.686;23.300;2022-12-18T10:49:21;7.28;;;6.57;;
43216;SDS011;60511;42.686;23.300;2022-12-18T10:51:34;9.90;;;8.50;;
43216;SDS011;60511;42.686;23.300;2022-12-18T10:53:37;7.60;;;6.97;;
43216;SDS011;60511;42.686;23.300;2022-12-18T10:55:38;7.95;;;6.65;;
43216;SDS011;60511;42.686;23.300;2022-12-18T10:57:44;7.60;;;6.90;;
43216;SDS011;60511;42.686;23.300;2022-12-18T10:59:51;7.28;;;6.57;;
43216;SDS011;60511;42.686;23.300;2022-12-18T11:01:58;8.05;;;7.25;;
43216;SDS011;60511;42.686;23.300;2022-12-18T11:04:00;7.68;;;6.97;;
43216;SDS011;60511;42.686;23.300;2022-12-18T11:06:14;7.32;;;6.60;;
43216;SDS011;60511;42.686;23.300;2022-12-18T11:08:22;7.50;;;6.75;;
43216;SDS011;60511;42.686;23.300;2022-12-18T11:10:28;7.95;;;7.20;;
43216;SDS011;60511;42.686;23.300;2022-12-18T11:12:30;8.45;;;7.30;;
43216;SDS011;60511;42.686;23.300;2022-12-18T11:14:32;8.55;;;7.75;;
43216;SDS011;60511;42.686;23.300;2022-12-18T11:16:48;7.97;;;7.25;;
43216;SDS011;60511;42.686;23.300;2022-12-18T11:18:50;8.45;;;7.65;;
43216;SDS011;60511;42.686;23.300;2022-12-18T11:20:52;7.90;;;7.10;;
43216;SDS011;60511;42.686;23.300;2022-12-18T11:23:10;7.82;;;7.13;;
43216;SDS011;60511;42.686;23.300;2022-12-18T11:27:17;8.00;;;7.20;;
43216;SDS011;60511;42.686;23.300;2022-12-18T11:29:22;8.40;;;7.60;;
43216;SDS011;60511;42.686;23.300;2022-12-18T11:31:27;8.00;;;7.25;;
43216;SDS011;60511;42.686;23.300;2022-12-18T11:33:28;8.23;;;7.43;;
43216;SDS011;60511;42.686;23.300;2022-12-18T11:37:32;7.53;;;6.80;;
43216;SDS011;60511;42.686;23.300;2022-12-18T11:39:36;7.78;;;7.13;;
43216;SDS011;60511;42.686;23.300;2022-12-18T11:41:47;7.85;;;7.15;;
43216;SDS011;60511;42.686;23.300;2022-12-18T11:44:11;7.97;;;7.10;;
43216;SDS011;60511;42.686;23.300;2022-12-18T11:48:58;7.28;;;6.57;;
43216;SDS011;60511;42.686;23.300;2022-12-18T11:51:12;7.47;;;6.88;;
43216;SDS011;60511;42.686;23.300;2022-12-18T11:53:20;7.95;;;7.15;;
43216;SDS011;60511;42.686;23.300;2022-12-18T12:02:10;5.27;;;4.77;;
43216;SDS011;60511;42.686;23.300;2022-12-18T12:13:55;7.85;;;7.03;;
43216;SDS011;60511;42.686;23.300;2022-12-18T12:16:12;8.43;;;7.63;;
43216;SDS011;60511;42.686;23.300;2022-12-18T12:20:47;7.57;;;6.78;;
43216;SDS011;60511;42.686;23.300;2022-12-18T12:23:06;7.97;;;7.28;;
43216;SDS011;60511;42.686;23.300;2022-12-18T12:30:21;7.63;;;6.90;;
43216;SDS011;60511;42.686;23.300;2022-12-18T12:37:01;8.55;;;7.75;;
43216;SDS011;60511;42.686;23.300;2022-12-18T12:39:11;7.85;;;7.05;;
43216;SDS011;60511;42.686;23.300;2022-12-18T12:41:24;8.75;;;7.90;;
43216;SDS011;60511;42.686;23.300;2022-12-18T12:43:46;7.93;;;7.22;;
43216;SDS011;60511;42.686;23.300;2022-12-18T12:45:53;8.70;;;7.50;;
43216;SDS011;60511;42.686;23.300;2022-12-18T12:47:58;7.90;;;7.20;;
43216;SDS011;60511;42.686;23.300;2022-12-18T12:50:03;8.52;;;7.70;;
43216;SDS011;60511;42.686;23.300;2022-12-18T12:52:12;8.40;;;7.60;;
43216;SDS011;60511;42.686;23.300;2022-12-18T12:54:17;8.15;;;7.45;;
43216;SDS011;60511;42.686;23.300;2022-12-18T12:56:21;7.50;;;6.80;;
43216;SDS011;60511;42.686;23.300;2022-12-18T13:03:19;8.05;;;7.35;;
43216;SDS011;60511;42.686;23.300;2022-12-18T13:05:31;8.73;;;7.82;;
43216;SDS011;60511;42.686;23.300;2022-12-18T13:07:51;8.57;;;7.78;;
43216;SDS011;60511;42.686;23.300;2022-12-18T13:12:25;9.00;;;7.93;;
43216;SDS011;60511;42.686;23.300;2022-12-18T13:14:51;7.90;;;7.20;;
43216;SDS011;60511;42.686;23.300;2022-12-18T13:16:52;8.73;;;7.90;;
43216;SDS011;60511;42.686;23.300;2022-12-18T13:19:21;8.25;;;7.45;;
43216;SDS011;60511;42.686;23.300;2022-12-18T13:21:26;8.63;;;7.82;;
43216;SDS011;60511;42.686;23.300;2022-12-18T13:25:39;9.32;;;8.35;;
43216;SDS011;60511;42.686;23.300;2022-12-18T13:29:41;7.97;;;7.18;;
43216;SDS011;60511;42.686;23.300;2022-12-18T13:33:44;8.13;;;7.32;;
43216;SDS011;60511;42.686;23.300;2022-12-18T13:37:53;8.45;;;7.65;;
43216;SDS011;60511;42.686;23.300;2022-12-18T13:39:54;8.80;;;7.85;;
43216;SDS011;60511;42.686;23.300;2022-12-18T13:44:28;7.82;;;7.03;;